createdAt,value
2022-10-09T00:02:50.331Z,12.53
2022-10-09T00:05:53.766Z,12.56
2022-10-09T00:08:59.767Z,12.37
2022-10-09T00:19:25.838Z,12.25
2022-10-09T00:22:29.000Z,12.20
2022-10-09T00:25:32.296Z,12.24
2022-10-09T00:28:38.497Z,12.24
2022-10-09T00:31:41.577Z,12.29
2022-10-09T00:34:44.539Z,12.38
2022-10-09T00:37:48.699Z,12.56
2022-10-09T00:40:52.204Z,12.51
2022-10-09T00:43:57.901Z,12.39
2022-10-09T00:47:00.826Z,12.39
2022-10-09T00:50:41.487Z,12.43
2022-10-09T00:53:44.496Z,12.45
2022-10-09T00:56:48.815Z,12.52
2022-10-09T00:59:51.905Z,12.40
2022-10-09T01:02:54.897Z,12.34
2022-10-09T01:06:27.021Z,12.34
2022-10-09T01:09:37.299Z,12.30
2022-10-09T01:12:40.117Z,12.21
2022-10-09T01:15:59.400Z,12.23
2022-10-09T01:19:16.804Z,12.24
2022-10-09T01:22:19.295Z,12.20
2022-10-09T01:25:51.430Z,12.26
2022-10-09T01:28:59.975Z,12.25
2022-10-09T01:32:04.907Z,12.27
2022-10-09T01:35:08.997Z,12.30
2022-10-09T01:38:14.896Z,12.26
2022-10-09T01:41:17.991Z,12.22
2022-10-09T01:44:24.175Z,12.19
2022-10-09T01:47:27.002Z,12.17
2022-10-09T01:50:34.851Z,12.13
2022-10-09T01:53:38.905Z,12.11
2022-10-09T01:56:45.658Z,12.16
2022-10-09T01:59:50.700Z,12.21
2022-10-09T02:02:55.128Z,12.36
2022-10-09T02:06:01.319Z,12.38
2022-10-09T02:09:07.609Z,12.30
2022-10-09T02:12:12.990Z,12.34
2022-10-09T02:15:16.267Z,12.49
2022-10-09T02:18:51.924Z,12.68
2022-10-09T02:22:06.754Z,12.66
2022-10-09T02:25:09.789Z,12.60
2022-10-09T02:28:12.402Z,12.65
2022-10-09T02:31:22.819Z,12.61
2022-10-09T02:34:25.408Z,12.63
2022-10-09T02:37:28.244Z,12.61
2022-10-09T02:40:31.081Z,12.59
2022-10-09T02:43:33.978Z,12.69
2022-10-09T02:46:38.600Z,12.76
2022-10-09T02:49:41.723Z,12.74
2022-10-09T02:52:44.181Z,12.73
2022-10-09T02:55:46.952Z,12.69
2022-10-09T02:58:49.669Z,12.63
2022-10-09T03:01:52.879Z,12.63
2022-10-09T03:04:55.582Z,12.58
2022-10-09T03:07:58.739Z,12.59
2022-10-09T03:11:01.197Z,12.64
2022-10-09T03:14:03.955Z,12.66
2022-10-09T03:17:06.787Z,12.86
2022-10-09T03:20:12.433Z,12.85
2022-10-09T03:23:14.903Z,12.83
2022-10-09T03:26:23.661Z,12.84
2022-10-09T03:29:30.713Z,12.80
2022-10-09T03:32:34.819Z,12.83
2022-10-09T03:35:37.410Z,13.00
2022-10-09T03:38:40.499Z,13.05
2022-10-09T03:41:42.899Z,12.83
2022-10-09T03:44:45.726Z,12.74
2022-10-09T03:47:48.286Z,12.73
2022-10-09T03:50:51.442Z,12.54
2022-10-09T03:53:56.166Z,12.53
2022-10-09T03:56:59.219Z,12.37
2022-10-09T04:00:01.866Z,12.46
2022-10-09T04:03:10.286Z,12.36
2022-10-09T04:06:13.364Z,12.44
2022-10-09T04:09:16.224Z,12.54
2022-10-09T04:12:22.384Z,12.46
2022-10-09T04:15:25.005Z,12.63
2022-10-09T04:18:28.039Z,12.70
2022-10-09T04:21:30.702Z,12.76
2022-10-09T04:24:33.576Z,12.94
2022-10-09T04:27:37.257Z,12.72
2022-10-09T04:30:42.133Z,12.53
2022-10-09T04:33:45.121Z,12.71
2022-10-09T04:36:48.074Z,12.62
2022-10-09T04:39:50.669Z,12.65
2022-10-09T04:42:53.483Z,12.65
2022-10-09T04:45:57.178Z,12.71
2022-10-09T04:49:00.140Z,12.72
2022-10-09T04:52:03.334Z,12.86
2022-10-09T04:55:07.139Z,12.96
2022-10-09T04:58:10.771Z,13.06
2022-10-09T05:01:20.792Z,13.21
2022-10-09T05:04:24.022Z,13.20
2022-10-09T05:07:27.392Z,13.46
2022-10-09T05:10:32.028Z,13.45
2022-10-09T05:13:37.587Z,13.51
2022-10-09T05:17:01.000Z,13.79
2022-10-09T05:20:03.148Z,14.03
2022-10-09T05:23:05.628Z,14.22
2022-10-09T05:26:12.026Z,14.58
2022-10-09T05:29:14.546Z,14.62
2022-10-09T05:32:17.454Z,14.63
2022-10-09T05:35:20.667Z,14.63
2022-10-09T05:38:24.955Z,14.72
2022-10-09T05:41:29.808Z,14.76
2022-10-09T05:44:33.165Z,15.03
2022-10-09T05:47:36.488Z,14.84
2022-10-09T05:50:39.705Z,14.67
2022-10-09T05:53:44.571Z,14.93
2022-10-09T05:56:47.947Z,14.62
2022-10-09T05:59:51.012Z,14.82
2022-10-09T06:02:55.031Z,14.83
2022-10-09T06:06:06.646Z,14.92
2022-10-09T06:09:20.260Z,15.06
2022-10-09T06:12:30.382Z,15.41
2022-10-09T06:15:33.406Z,15.99
2022-10-09T06:18:36.294Z,16.64
2022-10-09T06:21:39.283Z,16.58
2022-10-09T06:24:42.080Z,16.48
2022-10-09T06:27:44.685Z,16.01
2022-10-09T06:30:48.706Z,15.46
2022-10-09T06:33:53.070Z,15.33
2022-10-09T06:36:55.993Z,15.27
2022-10-09T06:39:59.495Z,15.16
2022-10-09T06:43:04.035Z,15.35
2022-10-09T06:46:13.242Z,17.07
2022-10-09T06:52:53.600Z,18.73
2022-10-09T06:55:58.881Z,19.32
2022-10-09T06:59:06.771Z,19.78
2022-10-09T07:02:09.854Z,19.61
2022-10-09T07:05:12.614Z,20.22
2022-10-09T07:08:18.576Z,20.38
2022-10-09T07:11:31.163Z,20.18
2022-10-09T07:14:39.975Z,20.51
2022-10-09T07:17:45.339Z,20.71
2022-10-09T07:20:48.244Z,21.44
2022-10-09T07:23:51.224Z,21.62
2022-10-09T07:26:56.948Z,21.74
2022-10-09T07:30:01.203Z,21.31
2022-10-09T07:33:04.229Z,22.03
2022-10-09T07:36:09.841Z,21.78
2022-10-09T07:39:13.492Z,22.54
2022-10-09T07:42:16.039Z,23.14
2022-10-09T07:45:18.982Z,23.35
2022-10-09T07:48:21.467Z,23.51
2022-10-09T07:51:27.042Z,22.86
2022-10-09T07:54:29.627Z,22.75
2022-10-09T07:57:32.651Z,23.42
2022-10-09T08:00:35.518Z,23.71
2022-10-09T08:03:38.562Z,24.04
2022-10-09T08:06:44.863Z,23.55
2022-10-09T08:09:52.506Z,23.41
2022-10-09T08:12:55.143Z,23.85
2022-10-09T08:16:00.213Z,24.11
2022-10-09T08:19:03.206Z,24.75
2022-10-09T08:22:06.349Z,24.62
2022-10-09T08:25:14.318Z,24.28
2022-10-09T08:28:17.450Z,25.38
2022-10-09T08:31:20.600Z,25.32
2022-10-09T08:34:23.785Z,24.62
2022-10-09T08:37:26.359Z,24.57
2022-10-09T08:40:47.875Z,25.17
2022-10-09T08:44:01.941Z,25.67
2022-10-09T08:47:57.166Z,25.95
2022-10-09T08:54:50.098Z,26.53
2022-10-09T09:06:14.835Z,25.52
2022-10-09T09:09:29.424Z,25.95
2022-10-09T09:12:58.180Z,25.53
2022-10-09T09:16:25.674Z,25.34
2022-10-09T09:20:10.852Z,25.70
2022-10-09T09:27:02.962Z,24.22
2022-10-09T09:30:12.595Z,23.61
2022-10-09T09:33:44.284Z,22.63
2022-10-09T09:36:53.044Z,22.41
2022-10-09T09:43:21.587Z,25.20
2022-10-09T09:46:29.597Z,26.09
2022-10-09T09:49:32.474Z,26.46
2022-10-09T09:52:43.760Z,26.39
2022-10-09T09:55:54.322Z,26.41
2022-10-09T09:59:00.277Z,27.00
2022-10-09T10:02:12.432Z,26.15
2022-10-09T10:05:23.087Z,24.80
2022-10-09T10:08:31.745Z,23.91
2022-10-09T10:11:35.831Z,23.62
2022-10-09T10:14:49.381Z,22.65
2022-10-09T10:18:07.945Z,23.14
2022-10-09T10:21:20.862Z,24.88
2022-10-09T10:24:32.721Z,25.62
2022-10-09T10:27:39.808Z,25.46
2022-10-09T10:30:43.981Z,25.24
2022-10-09T10:33:54.326Z,23.98
2022-10-09T10:37:07.343Z,24.92
2022-10-09T10:40:21.437Z,24.39
2022-10-09T10:43:33.469Z,23.49
2022-10-09T10:47:03.883Z,22.10
2022-10-09T10:50:14.013Z,22.93
2022-10-09T10:53:39.832Z,22.59
2022-10-09T10:56:48.954Z,23.04
2022-10-09T11:00:09.849Z,24.81
2022-10-09T11:03:40.096Z,25.08
2022-10-09T11:07:16.133Z,24.53
2022-10-09T11:10:50.193Z,26.67
2022-10-09T11:13:58.904Z,25.79
2022-10-09T11:17:14.459Z,23.42
2022-10-09T11:20:38.975Z,26.02
2022-10-09T11:24:12.825Z,25.63
2022-10-09T11:27:43.497Z,26.06
2022-10-09T11:31:09.197Z,25.40
2022-10-09T11:34:40.089Z,25.47
2022-10-09T11:37:48.349Z,25.69
2022-10-09T11:40:51.866Z,24.95
2022-10-09T11:44:16.772Z,23.85
2022-10-09T11:47:31.254Z,22.53
2022-10-09T11:50:41.612Z,22.84
2022-10-09T11:53:46.957Z,23.07
2022-10-09T11:57:06.194Z,24.21
2022-10-09T12:00:11.181Z,23.37
2022-10-09T12:03:43.768Z,24.29
2022-10-09T12:07:09.581Z,22.94
2022-10-09T12:10:40.344Z,23.94
2022-10-09T12:13:45.631Z,23.36
2022-10-09T12:16:48.674Z,23.20
2022-10-09T12:20:07.827Z,22.54
2022-10-09T12:23:26.738Z,22.46
2022-10-09T12:26:30.767Z,22.00
2022-10-09T12:29:45.068Z,21.79
2022-10-09T12:32:55.482Z,21.91
2022-10-09T12:36:07.210Z,22.04
2022-10-09T12:39:21.543Z,21.91
2022-10-09T12:42:25.224Z,20.83
2022-10-09T12:45:30.997Z,20.65
2022-10-09T12:48:39.471Z,20.85
2022-10-09T12:51:42.038Z,21.35
2022-10-09T12:54:45.228Z,21.36
2022-10-09T12:57:47.892Z,21.14
2022-10-09T13:00:55.473Z,21.39
2022-10-09T13:03:59.550Z,21.10
2022-10-09T13:07:07.328Z,21.07
2022-10-09T13:10:22.412Z,21.56
2022-10-09T13:13:27.697Z,21.37
2022-10-09T13:17:00.068Z,21.31
2022-10-09T13:20:25.068Z,21.34
2022-10-09T13:23:36.585Z,20.67
2022-10-09T13:26:45.194Z,20.93
2022-10-09T13:29:48.615Z,20.66
2022-10-09T13:32:51.602Z,20.74
2022-10-09T13:35:54.188Z,20.40
2022-10-09T13:39:08.957Z,20.55
2022-10-09T13:42:15.484Z,20.39
2022-10-09T13:45:18.504Z,20.47
2022-10-09T13:48:21.021Z,20.42
2022-10-09T13:51:24.184Z,20.48
2022-10-09T13:54:29.131Z,20.96
2022-10-09T13:57:32.277Z,20.76
2022-10-09T14:00:38.494Z,20.34
2022-10-09T14:03:42.845Z,20.75
2022-10-09T14:06:45.871Z,20.61
2022-10-09T14:09:48.950Z,20.71
2022-10-09T14:12:52.145Z,20.25
2022-10-09T14:15:55.904Z,20.31
2022-10-09T14:19:07.277Z,20.27
2022-10-09T14:37:29.801Z,20.30
2022-10-09T14:56:04.916Z,19.73
2022-10-09T14:59:11.061Z,19.71
2022-10-09T15:02:16.182Z,19.70
2022-10-09T15:05:19.862Z,19.69
2022-10-09T15:08:27.585Z,19.58
2022-10-09T15:11:31.694Z,19.52
2022-10-09T15:14:34.544Z,19.35
2022-10-09T15:17:40.308Z,19.36
2022-10-09T15:20:46.794Z,19.37
2022-10-09T15:23:50.843Z,19.34
2022-10-09T15:26:53.637Z,19.29
2022-10-09T15:29:56.726Z,19.29
2022-10-09T15:33:03.307Z,18.84
2022-10-09T15:36:07.038Z,18.59
2022-10-09T15:39:10.146Z,18.71
2022-10-09T15:42:39.316Z,18.72
2022-10-09T15:45:42.935Z,18.48
2022-10-09T15:48:47.453Z,18.32
2022-10-09T15:51:51.351Z,18.37
2022-10-09T15:54:56.066Z,18.23
2022-10-09T15:57:58.630Z,18.12
2022-10-09T16:01:10.363Z,18.00
2022-10-09T16:04:14.086Z,17.92
2022-10-09T16:07:16.593Z,17.86
2022-10-09T16:10:19.853Z,17.73
2022-10-09T16:13:24.629Z,17.63
2022-10-09T16:16:28.541Z,17.68
2022-10-09T16:19:31.219Z,17.64
2022-10-09T16:22:34.300Z,17.53
2022-10-09T16:25:43.154Z,17.46
2022-10-09T16:28:47.671Z,17.31
2022-10-09T16:31:50.532Z,17.24
2022-10-09T16:34:53.361Z,17.16
2022-10-09T16:37:56.075Z,17.16
2022-10-09T16:41:02.827Z,16.82
2022-10-09T16:44:12.742Z,16.76
2022-10-09T16:47:15.515Z,16.60
2022-10-09T16:50:45.507Z,16.60
2022-10-09T16:53:53.865Z,16.55
2022-10-09T16:56:56.789Z,16.51
2022-10-09T17:00:00.059Z,16.54
2022-10-09T17:03:02.985Z,16.32
2022-10-09T17:06:11.989Z,16.29
2022-10-09T17:09:15.080Z,16.23
2022-10-09T17:12:18.381Z,16.23
2022-10-09T17:15:21.647Z,16.23
2022-10-09T17:18:25.086Z,16.12
2022-10-09T17:21:32.926Z,16.08
2022-10-09T17:24:37.854Z,15.94
2022-10-09T17:27:40.792Z,15.78
2022-10-09T17:30:44.449Z,15.84
2022-10-09T17:33:48.612Z,15.73
2022-10-09T17:36:51.632Z,15.73
2022-10-09T17:39:55.190Z,15.59
2022-10-09T17:42:58.208Z,15.42
2022-10-09T17:46:01.069Z,15.42
2022-10-09T17:49:04.658Z,15.51
2022-10-09T17:52:07.949Z,15.46
2022-10-09T17:55:11.282Z,15.34
2022-10-09T17:58:14.046Z,15.34
2022-10-09T18:01:18.976Z,15.25
2022-10-09T18:04:31.202Z,15.37
2022-10-09T18:07:37.866Z,15.28
2022-10-09T18:10:41.150Z,15.24
2022-10-09T18:13:46.143Z,15.17
2022-10-09T18:16:54.132Z,15.16
2022-10-09T18:19:57.355Z,15.17
2022-10-09T18:23:00.411Z,15.06
2022-10-09T18:26:19.525Z,15.03
2022-10-09T18:29:22.607Z,14.94
2022-10-09T18:32:25.478Z,14.79
2022-10-09T18:35:30.612Z,14.78
2022-10-09T18:38:41.708Z,14.83
2022-10-09T18:41:46.012Z,14.72
2022-10-09T18:44:50.239Z,14.65
2022-10-09T18:47:53.502Z,14.63
2022-10-09T18:51:00.844Z,14.53
2022-10-09T18:54:07.302Z,14.59
2022-10-09T18:57:10.572Z,14.56
2022-10-09T19:00:16.797Z,14.39
2022-10-09T19:03:20.302Z,14.45
2022-10-09T19:06:23.366Z,14.61
2022-10-09T19:09:26.843Z,14.32
2022-10-09T19:12:32.111Z,14.33
2022-10-09T19:15:35.309Z,14.25
2022-10-09T19:18:42.344Z,14.36
2022-10-09T19:21:45.236Z,14.37
2022-10-09T19:24:48.673Z,14.34
2022-10-09T19:27:52.055Z,14.19
2022-10-09T19:30:59.814Z,14.18
2022-10-09T19:34:05.339Z,14.01
2022-10-09T19:37:12.551Z,14.04
2022-10-09T19:40:17.938Z,13.99
2022-10-09T19:43:23.959Z,13.87
2022-10-09T19:46:27.492Z,13.83
2022-10-09T19:49:32.210Z,13.74
2022-10-09T19:52:34.852Z,13.61
2022-10-09T19:55:38.460Z,13.65
2022-10-09T19:58:43.638Z,13.63
2022-10-09T20:01:46.692Z,13.48
2022-10-09T20:04:49.865Z,13.50
2022-10-09T20:07:52.824Z,13.52
2022-10-09T20:11:03.097Z,13.49
2022-10-09T20:14:06.585Z,13.31
2022-10-09T20:17:09.586Z,13.27
2022-10-09T20:20:12.559Z,13.32
2022-10-09T20:23:15.719Z,13.12
2022-10-09T20:26:21.480Z,13.12
2022-10-09T20:29:27.003Z,13.09
2022-10-09T20:32:30.446Z,12.94
2022-10-09T20:35:33.643Z,12.99
2022-10-09T20:38:36.730Z,12.87
2022-10-09T20:41:48.380Z,12.90
2022-10-09T20:44:53.983Z,12.82
2022-10-09T20:47:57.105Z,12.80
2022-10-09T20:51:00.708Z,12.77
2022-10-09T20:54:06.536Z,12.72
2022-10-09T20:57:09.205Z,12.60
2022-10-09T21:00:13.561Z,12.61
2022-10-09T21:03:16.291Z,12.57
2022-10-09T21:06:21.347Z,12.48
2022-10-09T21:09:33.275Z,12.37
2022-10-09T21:12:36.650Z,12.36
2022-10-09T21:15:47.049Z,12.37
2022-10-09T21:19:01.357Z,12.36
2022-10-09T21:22:04.310Z,12.26
2022-10-09T21:25:07.691Z,12.20
2022-10-09T21:28:10.847Z,12.23
2022-10-09T21:31:20.540Z,12.18
2022-10-09T21:34:23.242Z,12.12
2022-10-09T21:37:26.465Z,12.15
2022-10-09T21:40:29.352Z,12.24
2022-10-09T21:43:32.280Z,12.06
2022-10-09T21:46:36.217Z,12.04
2022-10-09T21:49:43.884Z,12.04
2022-10-09T21:52:48.954Z,12.09
2022-10-09T21:55:52.642Z,12.13
2022-10-09T21:58:55.436Z,11.97
2022-10-09T22:01:58.926Z,12.04
2022-10-09T22:05:02.171Z,12.02
2022-10-09T22:08:05.219Z,11.93
2022-10-09T22:11:10.369Z,11.93
2022-10-09T22:14:13.816Z,11.91
2022-10-09T22:17:20.842Z,11.84
2022-10-09T22:20:24.529Z,11.84
2022-10-09T22:23:28.398Z,11.76
2022-10-09T22:26:32.102Z,11.73
2022-10-09T22:29:36.187Z,11.74
2022-10-09T22:32:39.279Z,11.69
2022-10-09T22:35:45.764Z,11.72
2022-10-09T22:38:48.596Z,11.65
2022-10-09T22:41:52.708Z,11.65
2022-10-09T22:44:56.393Z,11.62
2022-10-09T22:48:00.316Z,11.49
2022-10-09T22:51:05.001Z,11.65
2022-10-09T22:54:12.717Z,11.61
2022-10-09T22:57:15.865Z,11.56
2022-10-09T23:00:19.337Z,11.62
2022-10-09T23:03:22.011Z,11.63
2022-10-09T23:06:26.168Z,11.56
2022-10-09T23:09:32.218Z,11.69
2022-10-09T23:12:35.663Z,11.59
2022-10-09T23:15:38.938Z,11.48
2022-10-09T23:18:43.200Z,11.53
2022-10-09T23:21:46.910Z,11.57
2022-10-09T23:24:49.909Z,11.50
2022-10-09T23:27:52.885Z,11.46
2022-10-09T23:31:05.263Z,11.45
2022-10-09T23:34:08.149Z,11.42
2022-10-09T23:37:11.241Z,11.42
2022-10-09T23:40:14.714Z,11.40
2022-10-09T23:43:18.055Z,11.39
2022-10-09T23:46:27.679Z,11.34
2022-10-09T23:49:31.175Z,11.35
2022-10-09T23:52:34.563Z,11.27
2022-10-09T23:55:38.127Z,11.29
2022-10-09T23:58:41.202Z,11.31
